Ayacucho, Ayacucho Airport (SPHO)

NameAyacucho Airport
CityAyacucho
CountryPeru
ICAOSPHO
IATAAYP
Altitude2718 m
CoordinatesGoogle Map
Live Air TrafficLiveATC.net
METARSPHO 211500Z VRB01KT 9999 FEW012 BKN100 16/12 Q1030 RMK PP000
2019-03-21 15:00:00 Wind: North (0°) 0.51 m/s - Visibility: > 10000 m - Temperature: 16 °C - Dew point: 12 °C - Humidity: 77.3% - Pressure: 1030 hPa
Statistics

The table below shows the detailed information of all flights to/from Ayacucho, Ayacucho Airport (SPHO).